Townsville, Queensland

5:18 AM AEST on September 20, 2014 (GMT +1000)
Townsville Airport (Garbutt) | Change Station
CLOSE
Current Station
Personal Weather Station
Location: Garbutt, QUEENSLAND
Elevation: 20 ft
Nearby Weather Stations

Elev 20 ft 19.26 °S, 146.77 °E | Updated 7 minutes ago

Clear
Clear
65.7 °F
Feels Like 65.7 °F
N
0.0
Wind Variable Wind from ESE
Gusts 0.0 mph

Today
High -- | Low -- °F
--% Chance of Precip.
Yesterday
High -- | Low -- °F
Precip. -- in
6:04 AM 6:08 PM
Waning Crescent, 17% visible
Pressure 30.01 in
Visibility 6.2 miles
Clouds
Dew Point 63 °F
Humidity 91%
Rainfall 0.00 in
Snow Depth Not available.
UV Not available.
Pollen Not available.
Air Quality Not available.
Flu Activity Not available.
METAR YBTL 191900Z AUTO 00000KT 9999 // NCD 19/17 Q1016

More Conditions Fewer Conditions

Pressure 30.01 in
Visibility 6.2 miles
Clouds
Dew Point 63 °F
Humidity 91%
Rainfall 0.00 in
Snow Depth Not available.
UV Not available.
Pollen Not available.
Air Quality Not available.
Flu Activity Not available.
METAR YBTL 191900Z AUTO 00000KT 9999 // NCD 19/17 Q1016

More Conditions Fewer Conditions

10-Day Weather Forecast

Almanac

Astronomy

Sep. 20, 2014 Rise Set
Actual Time 6:04 AM AEST 6:08 PM AEST
Civil Twilight 5:43 AM AEST 6:30 PM AEST
Nautical Twilight 5:17 AM AEST 6:55 PM AEST
Astronomical Twilight 4:52 AM AEST 7:21 PM AEST
Moon 3:10 AM AEST (9/20) 2:54 PM AEST (9/20)
Length of Visible Light 12h 47m
Length of Day
12h 03m
Tomorrow will be 1m 5s longer.
Waning Crescent, 17% of the Moon is Illuminated
Sep 19
Waning Crescent
Sep 24
New
Oct 1
First Quarter
Oct 8
Full
Oct 15
Last Quarter

Yesterday's Extremes

Country Highs Country Lows

Community

WunderPhotos

Upload Photos

1,754,685 photos uploaded!

WunderBlogs® & News

Nearby

Snow Depth

Not available.

Earthquake Activity

City Distance Mag. Time & Date
No recent earthquake activity has been reported nearby.
Minimum magnitude displayed is 2.5.

Coastal Water Temperatures

Place Temperature
No Stations Reporting

Nearby Weather Stations